Time;durP1;ratioP1;P1;durP2;ratioP2;P2;SDS_P1;SDS_P2;PMS_P1;PMS_P2;Temp;Humidity;BMP_temperature;BMP_pressure;BME280_temperature;BME280_humidity;BME280_pressure;Samples;Min_cycle;Max_cycle;Signal;HPM_P1;HPM_P2
2023/02/15 00:00:16;;;;;;;;;;;;;;;0.69;94.54;101384.44;1087769;54;19950;-80
2023/02/15 00:01:20;;;;;;;;;;;;;;;0.75;94.59;101380.75;1087932;54;19943;-80
2023/02/15 00:02:24;;;;;;;;;;;;;;;0.73;94.58;101375.53;1087897;54;19939;-80
2023/02/15 00:03:25;;;;;;;;;;;;;;;0.73;94.66;101383.44;1087841;54;19943;-80
2023/02/15 00:04:45;;;;;;;;;;;;;;;0.70;94.64;101382.69;1087901;54;19942;-80
2023/02/15 00:05:46;;;;;;;;;;;;;;;0.70;94.96;101377.41;1087835;54;20583;-79
2023/02/15 00:06:53;;;;;;;;;;;;;;;0.76;95.08;101378.06;1087937;54;19939;-81
2023/02/15 00:07:54;;;;;;;;;;;;;;;0.78;94.51;101378.03;1087884;54;19943;-80
2023/02/15 00:08:58;;;;;;;;;;;;;;;0.78;94.12;101381.50;1087805;54;19943;-80
2023/02/15 00:09:59;;;;;;;;;;;;;;;0.82;94.25;101381.41;1087952;54;19950;-80
2023/02/15 00:11:06;;;;;;;;;;;;;;;0.83;93.79;101380.50;1087943;54;19965;-80
2023/02/15 00:12:07;;;;;;;;;;;;;;;0.82;93.67;101384.06;1087929;54;19942;-80
2023/02/15 00:13:12;;;;;;;;;;;;;;;0.82;93.78;101377.00;1087914;54;19950;-80
2023/02/15 00:14:15;;;;;;;;;;;;;;;0.80;93.42;101372.69;1087970;54;19943;-80
2023/02/15 00:15:19;;;;;;;;;;;;;;;0.81;93.42;101375.28;1087856;54;19954;-80
2023/02/15 00:16:20;;;;;;;;;;;;;;;0.86;93.53;101373.38;1087939;54;19943;-80
2023/02/15 00:17:24;;;;;;;;;;;;;;;0.84;93.26;101371.72;1087877;54;19946;-80
2023/02/15 00:18:25;;;;;;;;;;;;;;;0.88;92.95;101371.56;1087856;54;19974;-80
2023/02/15 00:19:29;;;;;;;;;;;;;;;0.84;92.60;101369.06;1087864;54;19986;-79
2023/02/15 00:20:30;;;;;;;;;;;;;;;0.86;92.53;101369.88;1087857;54;19943;-81
2023/02/15 00:21:34;;;;;;;;;;;;;;;0.85;92.41;101365.53;1087851;54;19942;-80
2023/02/15 00:22:38;;;;;;;;;;;;;;;0.75;92.15;101365.84;1087872;54;19947;-80
2023/02/15 00:23:42;;;;;;;;;;;;;;;0.72;92.11;101371.19;1087930;54;19942;-81
2023/02/15 00:24:43;;;;;;;;;;;;;;;0.71;91.82;101368.63;1087814;54;20319;-79
2023/02/15 00:25:46;;;;;;;;;;;;;;;0.69;92.58;101359.91;1087866;54;19943;-80
2023/02/15 00:26:48;;;;;;;;;;;;;;;0.63;92.60;101360.94;1087817;54;19950;-80
2023/02/15 00:27:51;;;;;;;;;;;;;;;0.61;92.51;101366.25;1087805;54;19939;-80
2023/02/15 00:28:53;;;;;;;;;;;;;;;0.55;92.83;101352.44;1090393;39;20134;-80
2023/02/15 00:29:56;;;;;;;;;;;;;;;0.57;93.09;101366.38;1087846;54;19942;-80
2023/02/15 00:31:02;;;;;;;;;;;;;;;0.57;92.88;101364.63;1087861;54;19942;-80
2023/02/15 00:32:06;;;;;;;;;;;;;;;0.55;93.21;101358.56;1087753;54;19943;-80
2023/02/15 00:33:07;;;;;;;;;;;;;;;0.56;92.95;101359.44;1087856;54;19947;-80
2023/02/15 00:34:13;;;;;;;;;;;;;;;0.52;93.29;101360.41;1087823;54;19923;-80
2023/02/15 00:35:15;;;;;;;;;;;;;;;0.59;93.43;101359.31;1087865;54;20323;-80
2023/02/15 00:36:18;;;;;;;;;;;;;;;0.64;93.39;101362.69;1090792;39;20649;-80
2023/02/15 00:37:19;;;;;;;;;;;;;;;0.65;92.43;101359.13;1087851;54;19943;-79
2023/02/15 00:38:26;;;;;;;;;;;;;;;0.70;91.95;101357.22;1088277;39;20732;-80
2023/02/15 00:39:28;;;;;;;;;;;;;;;0.74;91.64;101355.34;1087781;54;19942;-80
2023/02/15 00:40:32;;;;;;;;;;;;;;;0.65;91.30;101364.41;1088542;39;20617;-80
2023/02/15 00:41:33;;;;;;;;;;;;;;;0.57;92.00;101364.63;1087870;54;19942;-80
2023/02/15 00:42:37;;;;;;;;;;;;;;;0.59;92.09;101354.03;1087892;54;20338;-81
2023/02/15 00:43:38;;;;;;;;;;;;;;;0.62;92.12;101360.06;1087584;54;19943;-79
2023/02/15 00:44:42;;;;;;;;;;;;;;;0.69;92.30;101358.09;1087810;54;19943;-79
2023/02/15 00:45:44;;;;;;;;;;;;;;;0.72;91.48;101360.66;1090113;39;20626;-80
2023/02/15 00:46:48;;;;;;;;;;;;;;;0.81;91.76;101363.91;1087886;54;19943;-80
2023/02/15 00:47:49;;;;;;;;;;;;;;;0.88;91.46;101358.38;1087830;54;19943;-79
2023/02/15 00:48:53;;;;;;;;;;;;;;;0.96;91.05;101363.38;1087766;54;19942;-79
2023/02/15 00:49:54;;;;;;;;;;;;;;;1.01;90.52;101361.47;1087484;54;19966;-79
2023/02/15 00:50:58;;;;;;;;;;;;;;;1.01;89.94;101357.97;1087776;54;19955;-79
2023/02/15 00:52:00;;;;;;;;;;;;;;;0.99;88.84;101360.66;1087803;54;19927;-80
2023/02/15 00:53:03;;;;;;;;;;;;;;;0.92;88.92;101356.50;1090260;39;20522;-80
2023/02/15 00:54:07;;;;;;;;;;;;;;;0.95;89.40;101356.38;1087756;54;19943;-82
2023/02/15 00:55:12;;;;;;;;;;;;;;;0.97;89.39;101359.00;1087825;54;19942;-79
2023/02/15 00:56:13;;;;;;;;;;;;;;;0.99;88.67;101352.75;1087788;54;19930;-79
2023/02/15 00:57:17;;;;;;;;;;;;;;;0.91;88.15;101360.91;1087781;54;20765;-79
2023/02/15 00:58:18;;;;;;;;;;;;;;;0.81;88.25;101363.91;1087761;54;19942;-81
2023/02/15 00:59:22;;;;;;;;;;;;;;;0.71;89.13;101361.56;1087761;54;20742;-80
2023/02/15 01:00:23;;;;;;;;;;;;;;;0.67;89.57;101352.03;1087766;54;20642;-79
2023/02/15 01:01:27;;;;;;;;;;;;;;;0.66;89.73;101360.88;1090203;39;20841;-80
2023/02/15 01:02:28;;;;;;;;;;;;;;;0.65;89.72;101359.13;1087777;54;19946;-80
2023/02/15 01:03:31;;;;;;;;;;;;;;;0.73;89.82;101361.50;1091326;39;20584;-80
2023/02/15 01:04:33;;;;;;;;;;;;;;;0.65;89.43;101364.41;1087818;54;19942;-79
2023/02/15 01:05:36;;;;;;;;;;;;;;;0.64;89.71;101357.41;1087709;54;19950;-80
2023/02/15 01:06:37;;;;;;;;;;;;;;;0.61;89.42;101360.97;1087713;54;19942;-80
2023/02/15 01:07:41;;;;;;;;;;;;;;;0.55;89.63;101355.06;1087747;54;19946;-80
2023/02/15 01:08:42;;;;;;;;;;;;;;;0.50;90.06;101354.34;1087743;54;19943;-79
2023/02/15 01:09:49;;;;;;;;;;;;;;;0.43;90.90;101359.81;1087758;54;19950;-80
2023/02/15 01:10:50;;;;;;;;;;;;;;;0.50;91.20;101356.97;1087802;54;19943;-80
2023/02/15 01:11:54;;;;;;;;;;;;;;;0.51;90.80;101350.81;1087830;54;19949;-79
2023/02/15 01:12:55;;;;;;;;;;;;;;;0.51;90.68;101354.31;1087633;54;19942;-79
2023/02/15 01:14:00;;;;;;;;;;;;;;;0.47;90.48;101360.56;1087783;54;19943;-82
2023/02/15 01:15:01;;;;;;;;;;;;;;;0.46;90.53;101359.72;1087848;54;19966;-80
2023/02/15 01:16:06;;;;;;;;;;;;;;;0.49;90.86;101361.38;1087816;54;19946;-79
2023/02/15 01:17:07;;;;;;;;;;;;;;;0.51;91.04;101354.31;1087850;54;19946;-80
2023/02/15 01:18:11;;;;;;;;;;;;;;;0.46;90.42;101359.72;1087877;54;19934;-79
2023/02/15 01:19:12;;;;;;;;;;;;;;;0.42;91.00;101367.75;1087880;54;19970;-79
2023/02/15 01:20:16;;;;;;;;;;;;;;;0.41;90.91;101358.13;1087838;54;19970;-79
2023/02/15 01:21:18;;;;;;;;;;;;;;;0.48;91.42;101364.91;1091455;46;20011;-79
2023/02/15 01:22:22;;;;;;;;;;;;;;;0.55;91.30;101352.44;1087887;54;19942;-79
2023/02/15 01:23:23;;;;;;;;;;;;;;;0.47;89.99;101358.78;1087808;54;19934;-79
2023/02/15 01:24:33;;;;;;;;;;;;;;;0.52;90.62;101360.41;1087989;54;19942;-81
2023/02/15 01:25:37;;;;;;;;;;;;;;;0.56;90.25;101357.66;1088048;54;20318;-80
2023/02/15 01:26:41;;;;;;;;;;;;;;;0.60;90.23;101361.91;1088071;54;19938;-79
2023/02/15 01:27:42;;;;;;;;;;;;;;;0.68;89.76;101359.00;1087988;54;19942;-80
2023/02/15 01:28:47;;;;;;;;;;;;;;;0.49;89.00;101360.50;1087880;54;19943;-79
2023/02/15 01:29:48;;;;;;;;;;;;;;;0.47;89.75;101357.94;1087697;54;19946;-79
2023/02/15 01:30:52;;;;;;;;;;;;;;;0.39;89.89;101352.91;1087738;54;19942;-79
2023/02/15 01:31:53;;;;;;;;;;;;;;;0.35;90.44;101356.56;1087790;54;19948;-80
2023/02/15 01:32:57;;;;;;;;;;;;;;;0.38;90.80;101359.06;1087727;54;19942;-79
2023/02/15 01:33:58;;;;;;;;;;;;;;;0.35;90.90;101353.03;1087640;54;19950;-79
2023/02/15 01:35:02;;;;;;;;;;;;;;;0.35;90.62;101353.91;1087753;54;19942;-80
2023/02/15 01:36:04;;;;;;;;;;;;;;;0.33;90.60;101355.72;1087712;54;19954;-79
2023/02/15 01:37:08;;;;;;;;;;;;;;;0.37;90.72;101357.38;1087736;54;19943;-79
2023/02/15 01:38:09;;;;;;;;;;;;;;;0.38;90.54;101348.53;1087787;54;19950;-78
2023/02/15 01:39:13;;;;;;;;;;;;;;;0.37;90.93;101353.84;1089229;39;20544;-79
2023/02/15 01:40:15;;;;;;;;;;;;;;;0.37;90.58;101354.75;1087825;54;19943;-79
2023/02/15 01:41:27;;;;;;;;;;;;;;;0.30;90.75;101345.28;1087794;54;19943;-78
2023/02/15 01:42:28;;;;;;;;;;;;;;;0.34;90.80;101344.31;1088032;54;19949;-78
2023/02/15 01:43:41;;;;;;;;;;;;;;;0.33;90.83;101347.00;1087980;54;19943;-80
2023/02/15 01:44:50;;;;;;;;;;;;;;;0.32;90.89;101346.09;1088135;54;19950;-78
2023/02/15 01:45:54;;;;;;;;;;;;;;;0.41;90.97;101352.88;1088187;54;19943;-80
2023/02/15 01:47:05;;;;;;;;;;;;;;;0.41;90.26;101345.81;1088164;54;19943;-79
2023/02/15 01:48:20;;;;;;;;;;;;;;;0.36;90.50;101347.75;1089680;46;20015;-80
2023/02/15 01:49:25;;;;;;;;;;;;;;;0.27;91.05;101354.13;1088229;47;19966;-80
2023/02/15 01:50:31;;;;;;;;;;;;;;;0.22;91.49;101345.53;1089589;46;19950;-79
2023/02/15 01:51:34;;;;;;;;;;;;;;;0.22;91.79;101350.81;1087861;54;20002;-79
2023/02/15 01:52:39;;;;;;;;;;;;;;;0.15;91.76;101342.22;1088029;46;19989;-82
2023/02/15 01:53:43;;;;;;;;;;;;;;;0.15;92.15;101344.84;1087793;54;19938;-80
2023/02/15 01:54:47;;;;;;;;;;;;;;;0.11;92.89;101343.22;1087625;54;20281;-80
2023/02/15 01:55:50;;;;;;;;;;;;;;;0.14;92.73;101343.13;1087554;54;19950;-80
2023/02/15 01:56:58;;;;;;;;;;;;;;;0.22;92.94;101350.81;1087792;54;19943;-79
2023/02/15 01:58:00;;;;;;;;;;;;;;;0.28;92.43;101349.75;1087738;54;19961;-79
2023/02/15 01:59:06;;;;;;;;;;;;;;;0.30;92.01;101345.28;1087781;54;19942;-79
2023/02/15 02:00:08;;;;;;;;;;;;;;;0.30;91.34;101345.28;1087932;54;19943;-79
2023/02/15 02:01:21;;;;;;;;;;;;;;;0.33;91.22;101341.72;1088089;54;19950;-80
2023/02/15 02:02:24;;;;;;;;;;;;;;;0.29;90.78;101333.03;1087870;54;20932;-82
2023/02/15 02:03:33;;;;;;;;;;;;;;;0.29;90.86;101335.66;1087925;54;19949;-82
2023/02/15 02:04:37;;;;;;;;;;;;;;;0.23;91.03;101333.25;1087868;54;19946;-81
2023/02/15 02:05:42;;;;;;;;;;;;;;;0.20;91.02;101335.94;1087878;54;19938;-79
2023/02/15 02:06:46;;;;;;;;;;;;;;;0.15;91.40;101329.06;1089269;46;19949;-79
2023/02/15 02:07:52;;;;;;;;;;;;;;;0.11;91.85;101327.44;1087697;54;19949;-80
2023/02/15 02:08:54;;;;;;;;;;;;;;;0.13;91.77;101327.41;1087673;54;19966;-82
2023/02/15 02:09:58;;;;;;;;;;;;;;;0.15;91.80;101328.19;1087685;54;20015;-79
2023/02/15 02:10:59;;;;;;;;;;;;;;;0.18;91.83;101322.84;1090732;39;20597;-80
2023/02/15 02:12:06;;;;;;;;;;;;;;;0.15;91.17;101329.06;1088472;46;19943;-79
2023/02/15 02:13:07;;;;;;;;;;;;;;;0.11;91.59;101332.69;1087713;54;19943;-79
2023/02/15 02:14:10;;;;;;;;;;;;;;;0.07;91.51;101320.56;1087717;54;19970;-79
2023/02/15 02:15:12;;;;;;;;;;;;;;;0.10;91.92;101323.06;1087623;54;19945;-80
2023/02/15 02:16:19;;;;;;;;;;;;;;;0.17;91.59;101325.53;1087665;54;19939;-79
2023/02/15 02:17:28;;;;;;;;;;;;;;;0.19;91.02;101319.31;1087731;54;19947;-79
2023/02/15 02:18:38;;;;;;;;;;;;;;;0.07;91.06;101328.44;1087716;54;20011;-79
2023/02/15 02:19:57;;;;;;;;;;;;;;;0.02;91.37;101322.44;1087734;54;19942;-79
2023/02/15 02:21:27;;;;;;;;;;;;;;;-0.01;91.46;101322.56;1087687;54;19943;-79
2023/02/15 02:22:40;;;;;;;;;;;;;;;-0.02;91.42;101318.22;1087726;54;19966;-79
2023/02/15 02:23:53;;;;;;;;;;;;;;;-0.02;92.16;101320.84;1087752;54;19942;-79
2023/02/15 02:25:15;;;;;;;;;;;;;;;-0.05;91.79;101331.44;1088144;39;20597;-79
2023/02/15 02:26:34;;;;;;;;;;;;;;;-0.01;92.00;101326.03;1087336;54;19950;-79
2023/02/15 02:27:41;;;;;;;;;;;;;;;0.01;91.54;101326.00;1087653;54;19950;-79
2023/02/15 02:28:59;;;;;;;;;;;;;;;0.00;91.42;101319.03;1087693;54;19998;-79
2023/02/15 02:30:32;;;;;;;;;;;;;;;0.08;91.63;101324.91;1087563;54;20713;-79
2023/02/15 02:31:43;;;;;;;;;;;;;;;0.10;90.90;101320.44;1087333;54;20013;-79
2023/02/15 02:33:10;;;;;;;;;;;;;;;0.11;90.70;101322.19;1087201;54;19959;-80
2023/02/15 02:34:15;;;;;;;;;;;;;;;0.14;90.48;101322.09;1087278;54;19942;-79
2023/02/15 02:35:19;;;;;;;;;;;;;;;0.21;90.48;101316.63;1087259;54;19949;-79
2023/02/15 02:36:26;;;;;;;;;;;;;;;0.17;89.86;101315.03;1087336;54;19990;-78
2023/02/15 02:37:29;;;;;;;;;;;;;;;0.19;89.95;101315.84;1087319;54;19967;-79
2023/02/15 02:38:38;;;;;;;;;;;;;;;0.23;89.96;101317.47;1087232;54;19966;-79
2023/02/15 02:39:45;;;;;;;;;;;;;;;0.27;89.50;101316.47;1087294;54;19943;-78
2023/02/15 02:40:53;;;;;;;;;;;;;;;0.31;89.33;101315.44;1087212;54;19954;-79
2023/02/15 02:41:58;;;;;;;;;;;;;;;0.35;89.19;101317.09;1087387;54;19943;-79
2023/02/15 02:43:04;;;;;;;;;;;;;;;0.35;88.59;101317.09;1087267;54;19950;-78
2023/02/15 02:44:10;;;;;;;;;;;;;;;0.33;88.42;101310.16;1087217;54;19942;-79
2023/02/15 02:45:18;;;;;;;;;;;;;;;0.35;88.50;101314.47;1087409;54;19965;-79
2023/02/15 02:46:22;;;;;;;;;;;;;;;0.37;88.37;101315.28;1087346;54;19950;-80
2023/02/15 02:47:29;;;;;;;;;;;;;;;0.43;88.53;101312.44;1087281;54;20898;-79
2023/02/15 02:48:34;;;;;;;;;;;;;;;0.41;87.90;101319.50;1087385;54;19949;-79
2023/02/15 02:49:38;;;;;;;;;;;;;;;0.38;87.57;101309.06;1087359;54;20992;-79
2023/02/15 02:50:40;;;;;;;;;;;;;;;0.30;87.28;101308.47;1087172;54;19943;-79
2023/02/15 02:51:44;;;;;;;;;;;;;;;0.22;88.12;101306.09;1087180;47;19950;-79
2023/02/15 02:52:46;;;;;;;;;;;;;;;0.24;88.63;101311.28;1087309;54;19949;-79
2023/02/15 02:53:52;;;;;;;;;;;;;;;0.23;88.57;101305.19;1087282;54;19951;-79
2023/02/15 02:54:54;;;;;;;;;;;;;;;0.23;88.50;101299.91;1087311;54;19961;-79
2023/02/15 02:56:00;;;;;;;;;;;;;;;0.26;88.62;101309.47;1087257;54;19949;-80
2023/02/15 02:57:03;;;;;;;;;;;;;;;0.24;88.41;101311.28;1087761;39;20599;-79
2023/02/15 02:58:08;;;;;;;;;;;;;;;0.25;88.74;101313.88;1087258;54;19942;-80
2023/02/15 02:59:12;;;;;;;;;;;;;;;0.29;88.63;101309.38;1087283;54;19942;-79
2023/02/15 03:00:18;;;;;;;;;;;;;;;0.32;88.26;101304.00;1088044;46;19943;-80
2023/02/15 03:01:22;;;;;;;;;;;;;;;0.39;88.21;101305.53;1087212;54;19973;-79
2023/02/15 03:02:29;;;;;;;;;;;;;;;0.44;88.09;101303.63;1087361;54;19950;-80
2023/02/15 03:03:39;;;;;;;;;;;;;;;0.50;87.68;101302.59;1087345;54;19943;-79
2023/02/15 03:04:42;;;;;;;;;;;;;;;0.57;87.68;101298.84;1087324;54;19965;-79
2023/02/15 03:05:48;;;;;;;;;;;;;;;0.52;86.54;101299.91;1087324;54;19948;-79
2023/02/15 03:06:51;;;;;;;;;;;;;;;0.45;86.31;101304.50;1089353;46;19943;-81
2023/02/15 03:07:56;;;;;;;;;;;;;;;0.39;86.41;101296.78;1087650;54;19942;-80
2023/02/15 03:09:02;;;;;;;;;;;;;;;0.36;86.73;101299.50;1087692;54;19942;-79
2023/02/15 03:10:07;;;;;;;;;;;;;;;0.23;86.78;101297.28;1087700;54;19998;-80
2023/02/15 03:11:09;;;;;;;;;;;;;;;0.21;87.40;101303.47;1088112;46;19933;-80
2023/02/15 03:12:13;;;;;;;;;;;;;;;0.20;87.59;101300.00;1087556;54;20640;-78
2023/02/15 03:13:15;;;;;;;;;;;;;;;0.27;87.84;101301.53;1087605;54;19942;-79
2023/02/15 03:14:20;;;;;;;;;;;;;;;0.16;87.19;101298.38;1087699;54;19954;-79
2023/02/15 03:15:23;;;;;;;;;;;;;;;0.15;87.47;101300.16;1087708;54;19947;-79
2023/02/15 03:16:26;;;;;;;;;;;;;;;0.18;88.31;101306.22;1087858;54;19942;-80
2023/02/15 03:17:32;;;;;;;;;;;;;;;0.21;88.09;101303.47;1088595;46;20610;-78
2023/02/15 03:18:38;;;;;;;;;;;;;;;0.23;87.65;101299.03;1091411;39;20479;-82
2023/02/15 03:19:42;;;;;;;;;;;;;;;0.31;88.05;101299.66;1087894;54;19946;-79
2023/02/15 03:20:44;;;;;;;;;;;;;;;0.38;87.83;101290.66;1087856;46;19950;-82
2023/02/15 03:21:57;;;;;;;;;;;;;;;0.46;87.44;101291.31;1087819;54;19950;-80
2023/02/15 03:22:59;;;;;;;;;;;;;;;0.49;86.48;101284.19;1087701;54;19934;-78
2023/02/15 03:24:07;;;;;;;;;;;;;;;0.43;86.05;101280.88;1087845;54;19981;-81
2023/02/15 03:25:10;;;;;;;;;;;;;;;0.39;85.78;101283.66;1087821;54;19955;-79
2023/02/15 03:26:14;;;;;;;;;;;;;;;0.26;85.91;101283.19;1089165;47;19942;-79
2023/02/15 03:27:18;;;;;;;;;;;;;;;0.17;86.94;101283.47;1088905;47;19943;-80
2023/02/15 03:28:31;;;;;;;;;;;;;;;0.25;87.49;101281.44;1087709;54;19965;-81
2023/02/15 03:29:35;;;;;;;;;;;;;;;0.35;87.22;101284.63;1087842;54;19931;-78
2023/02/15 03:30:40;;;;;;;;;;;;;;;0.39;86.94;101281.84;1087899;54;19954;-78
2023/02/15 03:31:44;;;;;;;;;;;;;;;0.42;86.04;101283.56;1087868;54;19942;-78
2023/02/15 03:32:49;;;;;;;;;;;;;;;0.43;85.93;101288.75;1087875;47;19946;-79
2023/02/15 03:33:55;;;;;;;;;;;;;;;0.44;85.63;101287.84;1087877;54;19950;-78
2023/02/15 03:34:59;;;;;;;;;;;;;;;0.37;85.14;101285.44;1087872;54;19943;-80
2023/02/15 03:36:02;;;;;;;;;;;;;;;0.35;85.69;101298.66;1087995;47;19939;-78
2023/02/15 03:37:11;;;;;;;;;;;;;;;0.31;85.64;101294.41;1087775;54;19998;-80
2023/02/15 03:38:14;;;;;;;;;;;;;;;0.36;86.12;101300.41;1087854;54;19947;-80
2023/02/15 03:39:23;;;;;;;;;;;;;;;0.35;85.65;101298.66;1087821;54;19942;-78
2023/02/15 03:41:51;;;;;;;;;;;;;;;0.50;85.76;101312.22;1087823;54;19969;-80
2023/02/15 03:42:57;;;;;;;;;;;;;;;0.49;84.84;101310.50;1087814;54;19946;-80
2023/02/15 03:44:05;;;;;;;;;;;;;;;0.47;84.85;101314.03;1087802;54;19989;-79
2023/02/15 03:45:09;;;;;;;;;;;;;;;0.54;85.33;101311.25;1089455;47;19938;-79
2023/02/15 03:46:18;;;;;;;;;;;;;;;0.51;84.45;101316.59;1087761;54;19939;-79
2023/02/15 03:47:20;;;;;;;;;;;;;;;0.46;84.73;101312.34;1087730;54;19935;-79
2023/02/15 03:48:27;;;;;;;;;;;;;;;0.49;84.95;101315.78;1088111;47;19943;-78
2023/02/15 03:49:34;;;;;;;;;;;;;;;0.46;84.92;101317.63;1088564;47;19969;-79
2023/02/15 03:51:58;;;;;;;;;;;;;;;0.49;84.84;101315.78;1087535;54;19935;-78
2023/02/15 03:53:01;;;;;;;;;;;;;;;0.55;85.27;101316.44;1087732;54;19942;-82
2023/02/15 03:54:09;;;;;;;;;;;;;;;0.45;84.35;101315.00;1087803;54;19950;-78
2023/02/15 03:55:10;;;;;;;;;;;;;;;0.33;84.92;101315.41;1087802;54;19973;-78
2023/02/15 03:56:15;;;;;;;;;;;;;;;0.26;85.63;101314.75;1087707;54;19949;-79
2023/02/15 04:02:37;;;;;;;;;;;;;;;0.11;86.65;101306.41;1087569;54;19942;-78
2023/02/15 04:03:39;;;;;;;;;;;;;;;0.13;86.99;101304.59;1087452;54;19966;-79
2023/02/15 04:04:47;;;;;;;;;;;;;;;0.08;87.01;101300.38;1087522;54;19950;-78
2023/02/15 04:05:48;;;;;;;;;;;;;;;0.10;87.32;101304.66;1087501;54;19947;-78
2023/02/15 04:06:53;;;;;;;;;;;;;;;0.12;87.25;101307.28;1087862;47;19949;-78
2023/02/15 04:07:54;;;;;;;;;;;;;;;0.06;87.25;101303.06;1087525;54;19995;-79
2023/02/15 04:11:30;;;;;;;;;;;;;;;-0.07;87.56;101302.56;1092212;39;20707;-78
2023/02/15 04:12:31;;;;;;;;;;;;;;;-0.03;87.88;101304.19;1092228;39;20636;-80
2023/02/15 04:13:36;;;;;;;;;;;;;;;-0.06;87.85;101300.78;1087111;54;19942;-78
2023/02/15 04:16:03;;;;;;;;;;;;;;;0.07;88.64;101304.78;1087176;54;19942;-78
2023/02/15 04:17:05;;;;;;;;;;;;;;;0.14;87.73;101310.72;1087199;54;19950;-78
2023/02/15 04:18:08;;;;;;;;;;;;;;;0.10;86.95;101298.56;1091215;39;20578;-79
2023/02/15 04:25:35;;;;;;;;;;;;;;;0.22;87.45;101302.56;1087453;54;20889;-79
2023/02/15 04:26:37;;;;;;;;;;;;;;;0.13;87.39;101301.97;1087487;54;19942;-78
2023/02/15 04:27:41;;;;;;;;;;;;;;;0.12;86.97;101297.59;1087496;54;19967;-79
2023/02/15 04:28:45;;;;;;;;;;;;;;;0.10;86.89;101294.16;1087524;54;19942;-78
2023/02/15 04:29:49;;;;;;;;;;;;;;;0.09;86.53;101302.09;1087524;54;19943;-79
2023/02/15 04:30:50;;;;;;;;;;;;;;;0.15;87.08;101297.53;1087559;54;19943;-78
2023/02/15 04:31:56;;;;;;;;;;;;;;;0.19;86.42;101295.66;1087518;54;19943;-79
2023/02/15 04:32:57;;;;;;;;;;;;;;;0.20;86.53;101294.75;1087448;54;19991;-79
2023/02/15 04:34:01;;;;;;;;;;;;;;;0.25;86.64;101291.97;1087482;54;19994;-79
2023/02/15 04:35:03;;;;;;;;;;;;;;;0.27;86.11;101298.06;1087495;54;20630;-78
2023/02/15 04:36:09;;;;;;;;;;;;;;;0.28;85.89;101291.88;1087425;54;20002;-79
2023/02/15 04:37:13;;;;;;;;;;;;;;;0.33;86.26;101295.22;1089964;39;20584;-79
2023/02/15 04:38:14;;;;;;;;;;;;;;;0.35;85.19;101285.50;1087423;54;19965;-79
2023/02/15 04:39:18;;;;;;;;;;;;;;;0.30;84.93;101296.19;1087428;54;19949;-77
2023/02/15 04:40:19;;;;;;;;;;;;;;;0.25;85.27;101291.97;1087541;54;19950;-79
2023/02/15 04:41:23;;;;;;;;;;;;;;;0.26;85.31;101288.44;1087441;54;19943;-80
2023/02/15 04:42:24;;;;;;;;;;;;;;;0.32;85.66;101293.50;1087504;54;19942;-79
2023/02/15 04:43:28;;;;;;;;;;;;;;;0.38;85.37;101293.28;1087366;54;19943;-79
2023/02/15 04:44:29;;;;;;;;;;;;;;;0.38;85.06;101293.28;1087475;54;19943;-78
2023/02/15 04:45:34;;;;;;;;;;;;;;;0.34;84.69;101291.69;1087703;46;19943;-78
2023/02/15 04:46:35;;;;;;;;;;;;;;;0.34;84.65;101296.94;1087477;54;19943;-79
2023/02/15 04:47:39;;;;;;;;;;;;;;;0.35;84.79;101297.78;1087540;54;19990;-79
2023/02/15 04:48:40;;;;;;;;;;;;;;;0.32;84.67;101293.50;1087581;54;19950;-79
2023/02/15 04:49:44;;;;;;;;;;;;;;;0.32;84.85;101290.00;1087736;54;19955;-78
2023/02/15 04:50:45;;;;;;;;;;;;;;;0.28;84.83;101286.63;1087866;54;19950;-78
2023/02/15 04:51:51;;;;;;;;;;;;;;;0.27;85.36;101298.06;1087902;54;19942;-79
2023/02/15 04:52:52;;;;;;;;;;;;;;;0.18;85.35;101293.94;1087997;39;20528;-79
2023/02/15 04:53:57;;;;;;;;;;;;;;;0.12;85.79;101297.59;1087849;54;19949;-79
2023/02/15 04:54:58;;;;;;;;;;;;;;;0.13;85.79;101291.44;1087877;54;19950;-78
2023/02/15 04:56:03;;;;;;;;;;;;;;;0.22;86.13;101294.69;1087738;54;19974;-79
2023/02/15 04:57:04;;;;;;;;;;;;;;;0.27;85.91;101284.91;1087881;54;19949;-78
2023/02/15 04:58:08;;;;;;;;;;;;;;;0.22;85.04;101285.03;1087806;54;19989;-79
2023/02/15 04:59:10;;;;;;;;;;;;;;;0.15;85.27;101296.63;1087820;54;19951;-80
2023/02/15 05:00:14;;;;;;;;;;;;;;;0.09;85.69;101295.09;1087861;54;20989;-79
2023/02/15 05:01:15;;;;;;;;;;;;;;;0.08;85.94;101290.72;1091930;39;20798;-79
2023/02/15 05:02:19;;;;;;;;;;;;;;;0.09;85.97;101288.94;1087808;54;19990;-78
2023/02/15 05:03:20;;;;;;;;;;;;;;;-0.07;86.18;101299.06;1087740;54;19957;-79
2023/02/15 05:04:24;;;;;;;;;;;;;;;0.09;86.73;101297.72;1087805;54;19949;-79
2023/02/15 05:05:25;;;;;;;;;;;;;;;0.16;86.22;101287.84;1087780;54;19965;-79
2023/02/15 05:06:29;;;;;;;;;;;;;;;-0.02;86.07;101292.75;1089752;46;19965;-79
2023/02/15 05:07:36;;;;;;;;;;;;;;;0.01;86.48;101283.06;1087770;54;19944;-79
2023/02/15 05:08:37;;;;;;;;;;;;;;;0.03;86.84;101282.09;1089299;39;20562;-79
2023/02/15 05:09:41;;;;;;;;;;;;;;;0.03;86.54;101276.00;1087800;54;20721;-78
2023/02/15 05:10:42;;;;;;;;;;;;;;;0.02;86.25;101285.63;1087804;54;19949;-78
2023/02/15 05:11:46;;;;;;;;;;;;;;;0.05;86.22;101279.44;1088758;46;20566;-79
2023/02/15 05:12:47;;;;;;;;;;;;;;;-0.07;86.20;101283.28;1087791;54;19947;-78
2023/02/15 05:14:56;;;;;;;;;;;;;;;-0.03;86.88;101287.56;1087187;54;19962;-79
2023/02/15 05:15:57;;;;;;;;;;;;;;;-0.06;86.85;101287.66;1087887;54;19965;-79
2023/02/15 05:17:03;;;;;;;;;;;;;;;-0.12;86.75;101282.56;1087822;54;19950;-78
2023/02/15 05:18:05;;;;;;;;;;;;;;;-0.13;86.77;101284.31;1087791;54;19942;-79
2023/02/15 05:19:09;;;;;;;;;;;;;;;-0.11;87.51;101289.56;1087856;54;20006;-80
2023/02/15 05:20:10;;;;;;;;;;;;;;;-0.08;87.03;101285.06;1087856;54;19943;-79
2023/02/15 05:21:16;;;;;;;;;;;;;;;-0.11;86.83;101285.16;1087830;54;19949;-79
2023/02/15 05:22:17;;;;;;;;;;;;;;;-0.16;87.16;101287.91;1088882;39;20633;-80
2023/02/15 05:23:24;;;;;;;;;;;;;;;-0.18;87.32;101279.22;1087821;54;19954;-78
2023/02/15 05:28:20;;;;;;;;;;;;;;;0.04;86.85;101282.97;1089171;46;19938;-78
2023/02/15 05:29:24;;;;;;;;;;;;;;;0.04;86.66;101277.72;1087776;54;19946;-79
2023/02/15 05:30:25;;;;;;;;;;;;;;;0.09;86.87;101274.03;1087791;54;19938;-79
2023/02/15 05:31:29;;;;;;;;;;;;;;;0.12;86.61;101279.19;1087849;54;19950;-79
2023/02/15 05:32:30;;;;;;;;;;;;;;;0.11;86.11;101285.34;1087845;54;19957;-79
2023/02/15 05:33:34;;;;;;;;;;;;;;;0.08;86.11;101282.84;1087715;54;19991;-78
2023/02/15 05:34:36;;;;;;;;;;;;;;;0.13;86.86;101278.28;1087829;54;19943;-80
2023/02/15 05:35:43;;;;;;;;;;;;;;;0.08;86.28;101288.09;1087802;54;19942;-78
2023/02/15 05:36:49;;;;;;;;;;;;;;;0.07;86.12;101282.88;1087729;54;19950;-78
2023/02/15 05:37:59;;;;;;;;;;;;;;;0.06;86.32;101278.50;1088031;46;19942;-79
2023/02/15 05:39:12;;;;;;;;;;;;;;;0.09;86.86;101281.06;1088636;46;19966;-79
2023/02/15 05:40:19;;;;;;;;;;;;;;;0.05;86.39;101276.81;1087728;54;19967;-77
2023/02/15 05:41:29;;;;;;;;;;;;;;;-0.02;86.50;101271.72;1087359;54;19943;-78
2023/02/15 05:42:36;;;;;;;;;;;;;;;-0.01;87.21;101272.59;1087318;54;19973;-78
2023/02/15 05:43:47;;;;;;;;;;;;;;;-0.01;87.17;101269.97;1087441;54;19942;-79
2023/02/15 05:44:54;;;;;;;;;;;;;;;-0.02;87.67;101263.84;1087752;54;20653;-79
2023/02/15 05:46:09;;;;;;;;;;;;;;;0.08;87.70;101266.19;1087831;54;19949;-80
2023/02/15 05:47:13;;;;;;;;;;;;;;;-0.02;86.89;101270.88;1087732;54;19942;-78
2023/02/15 05:48:24;;;;;;;;;;;;;;;-0.02;87.25;101273.50;1089805;39;20648;-78
2023/02/15 05:49:27;;;;;;;;;;;;;;;-0.06;87.34;101269.25;1087779;54;21022;-80
2023/02/15 05:50:37;;;;;;;;;;;;;;;-0.09;87.45;101266.69;1087818;54;19950;-78
2023/02/15 05:51:40;;;;;;;;;;;;;;;-0.08;87.79;101268.41;1087783;54;20038;-77
2023/02/15 05:52:48;;;;;;;;;;;;;;;-0.05;88.00;101274.44;1087816;54;19950;-79
2023/02/15 05:53:52;;;;;;;;;;;;;;;-0.04;87.33;101270.06;1088016;39;20138;-78
2023/02/15 05:55:05;;;;;;;;;;;;;;;0.00;87.48;101276.97;1087764;54;20195;-79
2023/02/15 05:56:10;;;;;;;;;;;;;;;0.02;87.40;101264.59;1087903;54;19942;-81
2023/02/15 05:57:14;;;;;;;;;;;;;;;-0.01;86.96;101276.09;1088058;54;19950;-80
2023/02/15 05:58:16;;;;;;;;;;;;;;;-0.07;86.85;101270.13;1088125;54;19935;-81
2023/02/15 05:59:20;;;;;;;;;;;;;;;-0.19;87.23;101268.75;1088032;54;19942;-80